Nearby METAR Reports

 

KPMD - Palmdale, California, USA
Distance from station: NNE 12mi, 19km
Updated: Thu, 24-Sep-2020 4:53am PDT
Clear
Clear
 Wind from S
Wind: S 6 mph , 9 km/h
Temperature: 59°F , 15°C
Dew Point: 37°F , 3°C
Humidity: 45%
Barometer: 30.02 inHg , 1016.6 hPa
Clouds: Clear
Visibility: 10 miles , 16 km
2020/09/24 11:53 KPMD 241153Z AUTO 18005KT 10SM CLR 15/03 A3002 RMK AO2 SLP139 T01500028 10194 20150 56007 $
KWJF - Lancaster/Fox, California, USA
Distance from station: N 17mi, 27km
Updated: Thu, 24-Sep-2020 4:56am PDT
Clear
Clear
 Wind from W
Wind: W 3 mph , 6 km/h
Temperature: 61°F , 16°C
Dew Point: 36°F , 2°C
Humidity: 39%
Barometer: 30.01 inHg , 1016.3 hPa
Clouds: Clear
Visibility: 10 miles , 16 km
2020/09/24 11:56 KWJF 241156Z AUTO 27003KT 10SM CLR 16/02 A3001 RMK AO2 SLP144 T01560022 10217 20139 56007
 
KMWS - Mount Wilson, California, USA
Distance from station: SSE 18mi, 30km
Updated: Wed, 13-May-2015 6:45am PDT
NOT Current

 Wind from S
Wind: S 3 mph , 6 km/h, Gust: 5 mph , 7 km/h
Temperature: 43°F , 6°C
Dew Point: -0°F , -18°C
Humidity: 16%
2015/05/13 13:45 KMWS 131345Z 18003G04KT 06/M18 RMK SNOW DEPTH 1.00
KWHP - La / Whiteman, California, USA
Distance from station: SW 21mi, 34km
Updated: Wed, 23-Sep-2020 7:55pm PDT
NOT Current
Clear
Clear
 Wind from calm
Wind: Calm
Temperature: 81°F , 27°C
Dew Point: 52°F , 11°C
Humidity: 37%
Barometer: 30.00 inHg , 1015.9 hPa
Clouds: Clear
Visibility: 10 miles , 16 km
2020/09/24 02:55 KWHP 240255Z 00000KT 10SM SKC 27/11 A3000
 
KBUR - Burbank, California, USA
Distance from station: SSW 22mi, 35km
Updated: Thu, 24-Sep-2020 4:53am PDT
Clear
Clear
 Wind from calm
Wind: Calm
Temperature: 64°F , 18°C
Dew Point: 46°F , 8°C
Humidity: 52%
Barometer: 29.92 inHg , 1013.2 hPa
Clouds: Clear
Visibility: 10 miles , 16 km
2020/09/24 11:53 KBUR 241153Z 00000KT 10SM CLR 18/08 A2992 RMK AO2 SLP118 T01780083 10217 20178 56009 $
KVNY - Van Nuys, California, USA
Distance from station: SW 25mi, 40km
Updated: Thu, 24-Sep-2020 4:51am PDT
Clear
Clear
 Wind from varies
Wind: varies 3 mph , 6 km/h
Temperature: 66°F , 19°C
Dew Point: 45°F , 7°C
Humidity: 46%
Barometer: 29.92 inHg , 1013.2 hPa
Clouds: Clear
Visibility: 10 miles , 16 km
2020/09/24 11:51 KVNY 241151Z AUTO VRB03KT 10SM CLR 19/07 A2992 RMK AO2 SLP121 T01890072 10228 20183 56009
 
KEDW - Edwards Afb, California, USA
Distance from station: NNE 33mi, 53km
Updated: Thu, 24-Sep-2020 4:58am PDT
Clear
Clear
 Wind from calm
Wind: Calm
Temperature: 57°F , 14°C
Dew Point: 32°F , 0°C
Humidity: 39%
Barometer: 29.99 inHg , 1015.6 hPa
Clouds: Clear
Visibility: 10 miles , 16 km
2020/09/24 11:58 KEDW 241158Z AUTO 00000KT 10SM CLR 14/00 A2999 RMK AO2 SLP135 T01400003 10200 20136 55004
KSMO - Santa Monica, California, USA
Distance from station: SSW 35mi, 57km
Updated: Mon, 14-Sep-2020 10:51pm PDT
NOT Current
Mist, Smoke, Clear
Mist, Smoke, Clear
 Wind from calm
Wind: Calm
Temperature: 64°F , 18°C
Dew Point: 61°F , 16°C
Humidity: 88%
Barometer: 30.00 inHg , 1015.9 hPa
Summary: Mist, Smoke
Clouds: Clear
Visibility: 4 miles , 6 km
2020/09/15 05:51 KSMO 150551Z AUTO 00000KT 4SM BR FU CLR 18/16 A3000 RMK AO2 SLP157 T01780156 10233 20178 51018
 
KLAX - Los Angeles, California, USA
Distance from station: SSW 39mi, 63km
Updated: Thu, 24-Sep-2020 5:12am PDT
Fog, Partly cloudy
Fog, Partly cloudy
 Wind from calm
Wind: Calm
Temperature: 61°F , 16°C
Dew Point: 61°F , 16°C
Humidity: 100%
Barometer: 29.91 inHg , 1012.9 hPa
Summary: Fog
Clouds: Partly cloudy
Visibility: 1/4 mile , 0.4 km
Cloud details: Partly cloudy 0 ft
Partly cloudy 600 ft
2020/09/24 12:12 KLAX 241212Z 00000KT 1/4SM R25L/1400V1800FT FG SCT000 SCT006 16/16 A2991 RMK AO2 T01610156
KMHV - Mojave, California, USA
Distance from station: N 41mi, 66km
Updated: Thu, 24-Sep-2020 5:00am PDT
Overcast
Overcast
 Wind from WNW
Wind: WNW 23 mph , 37 km/h, Gust: 33 mph , 54 km/h
Temperature: 73°F , 23°C
Dew Point: 32°F , 0°C
Humidity: 22%
Barometer: 30.00 inHg , 1015.9 hPa
Clouds: Overcast
Visibility: 8 miles , 13 km
Cloud details: Few Clouds 1300 ft
Overcast 8000 ft
2020/09/24 12:00 KMHV 241200Z AUTO 30020G29KT 8SM FEW013 OVC080 23/00 A3000 RMK A01
 
KFUL - Fullerton, California, USA
Distance from station: SSE 44mi, 70km
Updated: Thu, 24-Sep-2020 4:53am PDT
Clear
Clear
 Wind from calm
Wind: Calm
Temperature: 63°F , 17°C
Dew Point: 54°F , 12°C
Humidity: 73%
Barometer: 29.90 inHg , 1012.5 hPa
Clouds: Clear
Visibility: 10 miles , 16 km
2020/09/24 11:53 KFUL 241153Z AUTO 00000KT 10SM CLR 17/12 A2990 RMK AO2 SLP123 T01720117 10217 20172 56008
KONT - Ontario, California, USA
Distance from station: SE 45mi, 72km
Updated: Thu, 24-Sep-2020 4:53am PDT
Clear
Clear
 Wind from calm
Wind: Calm
Temperature: 70°F , 21°C
Dew Point: 48°F , 9°C
Humidity: 46%
Barometer: 29.93 inHg , 1013.5 hPa
Clouds: Clear
Visibility: 10 miles , 16 km
2020/09/24 11:53 KONT 241153Z 00000KT 10SM CLR 21/09 A2993 RMK AO2 SLP116 T02060094 10244 20200 56008
 
KLGB - Long Beach, California, USA
Distance from station: S 46mi, 74km
Updated: Thu, 24-Sep-2020 4:53am PDT
Mist, Clear
Mist, Clear
 Wind from calm
Wind: Calm
Temperature: 64°F , 18°C
Dew Point: 63°F , 17°C
Humidity: 94%
Barometer: 29.91 inHg , 1012.9 hPa
Summary: Mist
Clouds: Clear
Visibility: 5 miles , 8 km
2020/09/24 11:53 KLGB 241153Z AUTO 00000KT 5SM BR CLR 18/17 A2991 RMK AO2 SLP126 T01780167 10206 20172 56008
KVCV - Victorville, California, USA
Distance from station: E 46mi, 74km
Updated: Wed, 23-Sep-2020 7:46pm PDT
NOT Current
Clear
Clear
 Wind from SSW
Wind: SSW 5 mph , 7 km/h
Barometer: 30.05 inHg , 1017.6 hPa
Clouds: Clear
Visibility: 10 miles , 16 km
2020/09/24 02:46 KVCV 240246Z 20004KT 10SM SKC A3005
 
KTSP - Tehachapi, California, USA
Distance from station: NNW 48mi, 77km
Updated: Thu, 24-Sep-2020 5:15am PDT
Overcast
Overcast
 Wind from W
Wind: W 7 mph , 11 km/h
Temperature: 54°F , 12°C
Dew Point: 32°F , 0°C
Humidity: 44%
Barometer: 30.17 inHg , 1021.7 hPa
Clouds: Overcast
Visibility: 8 miles , 13 km
Cloud details: Overcast 2600 ft
2020/09/24 12:15 KTSP 241215Z AUTO 26006KT 8SM OVC026 12/00 A3017 RMK AO2